Time;durP1;ratioP1;P1;durP2;ratioP2;P2;SDS_P1;SDS_P2;PMS_P1;PMS_P2;Temp;Humidity;BMP_temperature;BMP_pressure;BME280_temperature;BME280_humidity;BME280_pressure;Samples;Min_cycle;Max_cycle;Signal;HPM_P1;HPM_P2
2023/04/03 00:00:24;;;;;;;3.03;1.40;;;;;;;;;;4974600;28;98773;-86
2023/04/03 00:02:50;;;;;;;8.07;1.85;;;;;;;;;;4990849;28;99395;-86
2023/04/03 00:05:17;;;;;;;1.73;0.98;;;;;;;;;;4994488;28;103045;-87
2023/04/03 00:07:43;;;;;;;2.67;1.50;;;;;;;;;;4976758;28;98995;-86
2023/04/03 00:10:09;;;;;;;3.65;1.63;;;;;;;;;;4990994;28;101324;-86
2023/04/03 00:12:36;;;;;;;3.72;1.45;;;;;;;;;;4991726;28;98617;-86
2023/04/03 00:15:02;;;;;;;1.83;1.35;;;;;;;;;;4990399;28;100197;-86
2023/04/03 00:17:29;;;;;;;2.25;1.60;;;;;;;;;;4992427;28;100532;-87
2023/04/03 00:19:55;;;;;;;2.45;1.60;;;;;;;;;;5002698;28;98206;-87
2023/04/03 00:22:22;;;;;;;2.45;1.38;;;;;;;;;;4994777;28;98948;-84
2023/04/03 00:24:48;;;;;;;2.60;1.20;;;;;;;;;;4974720;28;100419;-85
2023/04/03 00:27:15;;;;;;;5.70;1.60;;;;;;;;;;4979176;28;99357;-85
2023/04/03 00:29:41;;;;;;;3.80;1.60;;;;;;;;;;4979820;28;100038;-85
2023/04/03 00:32:08;;;;;;;2.05;1.30;;;;;;;;;;4983607;28;98563;-85
2023/04/03 00:34:34;;;;;;;1.60;1.40;;;;;;;;;;4974893;28;100635;-84
2023/04/03 00:37:00;;;;;;;3.47;1.25;;;;;;;;;;4973034;28;100882;-85
2023/04/03 00:39:27;;;;;;;2.60;1.25;;;;;;;;;;4973022;28;98559;-83
2023/04/03 00:41:53;;;;;;;4.25;1.52;;;;;;;;;;4975593;28;99503;-83
2023/04/03 00:44:35;;;;;;;3.58;1.38;;;;;;;;;;4972125;28;99877;-85
2023/04/03 00:47:03;;;;;;;7.15;1.77;;;;;;;;;;4981281;28;98568;-85
2023/04/03 00:49:30;;;;;;;1.85;1.40;;;;;;;;;;4985530;28;103192;-85
2023/04/03 00:51:57;;;;;;;2.22;1.30;;;;;;;;;;4969915;28;99372;-84
2023/04/03 00:54:25;;;;;;;2.60;1.38;;;;;;;;;;4986611;28;100596;-84
2023/04/03 00:56:52;;;;;;;2.00;1.30;;;;;;;;;;4970879;28;100555;-85
2023/04/03 00:59:22;;;;;;;2.78;1.40;;;;;;;;;;4971748;28;98878;-85
2023/04/03 01:01:50;;;;;;;1.40;1.15;;;;;;;;;;4990292;28;98592;-86
2023/04/03 01:04:27;;;;;;;3.28;1.92;;;;;;;;;;4989292;28;100893;-87
2023/04/03 01:06:55;;;;;;;2.83;1.60;;;;;;;;;;4990646;28;98514;-87
2023/04/03 01:09:22;;;;;;;6.75;1.77;;;;;;;;;;4987545;28;100357;-86
2023/04/03 01:11:48;;;;;;;2.85;1.45;;;;;;;;;;4988244;28;100668;-87
2023/04/03 01:14:14;;;;;;;3.10;1.70;;;;;;;;;;4979960;28;100368;-86
2023/04/03 01:16:41;;;;;;;6.32;1.50;;;;;;;;;;4975673;28;100438;-87
2023/04/03 01:19:11;;;;;;;3.58;1.40;;;;;;;;;;4988477;28;98642;-86
2023/04/03 01:21:40;;;;;;;1.40;1.20;;;;;;;;;;4987682;28;100760;-84
2023/04/03 01:24:38;;;;;;;4.10;1.90;;;;;;;;;;4991481;28;100631;-84
2023/04/03 01:27:06;;;;;;;4.47;1.60;;;;;;;;;;4970992;28;98657;-85
2023/04/03 01:29:32;;;;;;;2.85;1.30;;;;;;;;;;4988790;28;100310;-85
2023/04/03 01:32:00;;;;;;;2.17;1.40;;;;;;;;;;4987876;28;100754;-83
2023/04/03 01:34:27;;;;;;;3.85;1.67;;;;;;;;;;4992789;28;98148;-84
2023/04/03 01:36:54;;;;;;;4.18;1.98;;;;;;;;;;4992406;28;100056;-83
2023/04/03 01:39:21;;;;;;;2.13;1.55;;;;;;;;;;4992098;28;98943;-85
2023/04/03 01:41:48;;;;;;;2.20;1.40;;;;;;;;;;4987356;28;100440;-85
2023/04/03 01:44:15;;;;;;;5.93;1.92;;;;;;;;;;4992082;28;100896;-85
2023/04/03 01:46:42;;;;;;;3.38;1.58;;;;;;;;;;4992442;28;98599;-84
2023/04/03 01:49:09;;;;;;;4.00;1.60;;;;;;;;;;4991231;28;100324;-85
2023/04/03 01:51:35;;;;;;;3.60;1.33;;;;;;;;;;4978673;28;104504;-85
2023/04/03 01:54:02;;;;;;;2.72;1.30;;;;;;;;;;4984602;28;98610;-84
2023/04/03 01:56:28;;;;;;;2.72;1.52;;;;;;;;;;4991926;28;101610;-85
2023/04/03 01:58:54;;;;;;;4.15;1.52;;;;;;;;;;4991600;28;99066;-85
2023/04/03 02:01:21;;;;;;;2.88;1.58;;;;;;;;;;4992233;28;99573;-84
2023/04/03 02:03:47;;;;;;;5.30;1.70;;;;;;;;;;4982521;28;100542;-84
2023/04/03 02:06:14;;;;;;;5.22;1.70;;;;;;;;;;4974029;28;99547;-84
2023/04/03 02:08:41;;;;;;;5.13;1.75;;;;;;;;;;4977436;28;100957;-84
2023/04/03 02:11:07;;;;;;;3.88;1.65;;;;;;;;;;4990876;28;100655;-86
2023/04/03 02:13:34;;;;;;;9.30;2.03;;;;;;;;;;4990925;28;98744;-86
2023/04/03 02:16:05;;;;;;;4.40;1.52;;;;;;;;;;4977278;28;101223;-86
2023/04/03 02:18:32;;;;;;;3.90;1.80;;;;;;;;;;4993301;28;98579;-86
2023/04/03 02:20:58;;;;;;;2.83;1.58;;;;;;;;;;4992788;28;100241;-85
2023/04/03 02:23:24;;;;;;;4.18;1.70;;;;;;;;;;4989539;28;99829;-88
2023/04/03 02:25:51;;;;;;;3.53;1.63;;;;;;;;;;4989256;28;98567;-84
2023/04/03 02:28:17;;;;;;;5.18;2.28;;;;;;;;;;4990709;28;100382;-86
2023/04/03 02:30:43;;;;;;;5.10;1.60;;;;;;;;;;4990312;28;101349;-85
2023/04/03 02:33:10;;;;;;;9.98;2.00;;;;;;;;;;4992345;28;98558;-85
2023/04/03 02:35:36;;;;;;;3.65;1.35;;;;;;;;;;4991782;28;100349;-86
2023/04/03 02:38:03;;;;;;;4.50;1.77;;;;;;;;;;4992117;28;103384;-84
2023/04/03 02:40:29;;;;;;;3.00;1.80;;;;;;;;;;4990818;28;100699;-84
2023/04/03 02:42:56;;;;;;;3.45;1.63;;;;;;;;;;4990435;28;102547;-83
2023/04/03 02:45:22;;;;;;;6.15;2.70;;;;;;;;;;4991188;28;98877;-83
2023/04/03 02:47:48;;;;;;;4.63;1.90;;;;;;;;;;4992014;28;100262;-83
2023/04/03 02:50:15;;;;;;;4.05;1.80;;;;;;;;;;4977688;28;100662;-83
2023/04/03 02:52:41;;;;;;;3.47;1.70;;;;;;;;;;4981624;28;98654;-83
2023/04/03 02:55:08;;;;;;;3.78;2.45;;;;;;;;;;4983673;28;100564;-83
2023/04/03 02:57:35;;;;;;;4.72;1.50;;;;;;;;;;4991228;28;100807;-83
2023/04/03 03:00:02;;;;;;;3.90;1.48;;;;;;;;;;4998101;28;98578;-83
2023/04/03 03:02:29;;;;;;;3.83;1.88;;;;;;;;;;4994179;28;100658;-83
2023/04/03 03:04:55;;;;;;;2.67;1.77;;;;;;;;;;4976812;28;98483;-85
2023/04/03 03:07:22;;;;;;;2.17;1.55;;;;;;;;;;4976353;28;100257;-85
2023/04/03 03:09:48;;;;;;;1.90;1.50;;;;;;;;;;4979625;28;100660;-85
2023/04/03 03:12:14;;;;;;;2.47;2.10;;;;;;;;;;4996770;28;97763;-84
2023/04/03 03:14:42;;;;;;;4.13;1.65;;;;;;;;;;5002912;28;99604;-83
2023/04/03 03:17:09;;;;;;;4.97;1.40;;;;;;;;;;5015588;28;98845;-84
2023/04/03 03:19:35;;;;;;;8.15;1.83;;;;;;;;;;5014998;28;98574;-84
2023/04/03 03:22:02;;;;;;;6.10;2.38;;;;;;;;;;5018285;28;100527;-84
2023/04/03 03:24:28;;;;;;;3.08;1.70;;;;;;;;;;5014623;28;97828;-85
2023/04/03 03:26:54;;;;;;;3.33;1.90;;;;;;;;;;5007463;28;99073;-84
2023/04/03 03:29:21;;;;;;;5.55;1.95;;;;;;;;;;4995812;28;98867;-83
2023/04/03 03:31:47;;;;;;;6.75;2.30;;;;;;;;;;5012930;28;98114;-82
2023/04/03 03:34:14;;;;;;;3.78;1.60;;;;;;;;;;5015260;28;99454;-82
2023/04/03 03:36:41;;;;;;;4.15;1.90;;;;;;;;;;5016443;28;98838;-83
2023/04/03 03:39:07;;;;;;;4.93;2.00;;;;;;;;;;5001653;28;98344;-83
2023/04/03 03:41:33;;;;;;;6.47;1.90;;;;;;;;;;5011742;28;98580;-84
2023/04/03 03:44:00;;;;;;;4.35;1.60;;;;;;;;;;5008166;28;101437;-82
2023/04/03 03:46:26;;;;;;;4.75;2.92;;;;;;;;;;4998645;28;99197;-83
2023/04/03 03:48:52;;;;;;;3.83;1.83;;;;;;;;;;4984442;28;100738;-82
2023/04/03 03:51:19;;;;;;;2.15;1.70;;;;;;;;;;4980318;28;98527;-82
2023/04/03 03:53:45;;;;;;;3.20;1.70;;;;;;;;;;4979558;28;100251;-82
2023/04/03 03:56:12;;;;;;;5.05;1.70;;;;;;;;;;4987722;28;100627;-82
2023/04/03 03:58:38;;;;;;;4.80;2.13;;;;;;;;;;4986249;28;100965;-82
2023/04/03 04:01:05;;;;;;;5.03;2.05;;;;;;;;;;4983596;28;100275;-82
2023/04/03 04:03:32;;;;;;;1.83;1.73;;;;;;;;;;4986933;28;100574;-82
2023/04/03 04:05:59;;;;;;;4.85;1.90;;;;;;;;;;4987181;28;99416;-82
2023/04/03 04:08:25;;;;;;;4.60;2.08;;;;;;;;;;4987556;28;101870;-83
2023/04/03 04:10:52;;;;;;;5.18;2.20;;;;;;;;;;4984741;28;98588;-83
2023/04/03 04:13:19;;;;;;;5.38;2.00;;;;;;;;;;4972182;28;103055;-82
2023/04/03 04:15:45;;;;;;;4.32;2.05;;;;;;;;;;4983006;28;99964;-82
2023/04/03 04:18:11;;;;;;;5.78;2.10;;;;;;;;;;4989476;28;100347;-82
2023/04/03 04:20:38;;;;;;;8.50;2.13;;;;;;;;;;4974937;28;102434;-83
2023/04/03 04:23:04;;;;;;;7.22;1.90;;;;;;;;;;4981185;28;100669;-83
2023/04/03 04:25:30;;;;;;;4.90;2.08;;;;;;;;;;5000193;28;97849;-82
2023/04/03 04:27:57;;;;;;;5.32;2.30;;;;;;;;;;4987030;28;102197;-82
2023/04/03 04:30:23;;;;;;;6.43;2.47;;;;;;;;;;4988074;28;98525;-82
2023/04/03 04:32:49;;;;;;;7.10;2.10;;;;;;;;;;4988377;28;103336;-82
2023/04/03 04:35:16;;;;;;;6.10;1.98;;;;;;;;;;4986230;28;100551;-81
2023/04/03 04:37:43;;;;;;;7.75;2.40;;;;;;;;;;4983271;28;98643;-82
2023/04/03 04:40:10;;;;;;;9.75;1.90;;;;;;;;;;4988198;28;100335;-83
2023/04/03 04:42:36;;;;;;;4.47;2.42;;;;;;;;;;4985916;28;100874;-83
2023/04/03 04:45:02;;;;;;;3.97;2.10;;;;;;;;;;4984737;28;98650;-81
2023/04/03 04:47:29;;;;;;;6.18;2.65;;;;;;;;;;4979652;28;102823;-81
2023/04/03 04:49:55;;;;;;;4.35;2.13;;;;;;;;;;4984152;28;97835;-81
2023/04/03 04:52:22;;;;;;;8.35;3.13;;;;;;;;;;4987772;28;99989;-80
2023/04/03 04:54:48;;;;;;;4.97;1.95;;;;;;;;;;4987640;28;99658;-81
2023/04/03 04:57:15;;;;;;;10.48;2.50;;;;;;;;;;4970079;28;99521;-81
2023/04/03 04:59:41;;;;;;;5.93;2.17;;;;;;;;;;4996450;28;100699;-82
2023/04/03 05:02:08;;;;;;;6.25;2.30;;;;;;;;;;4980911;28;100414;-82
2023/04/03 05:04:34;;;;;;;4.47;2.00;;;;;;;;;;4987997;28;100493;-81
2023/04/03 05:07:02;;;;;;;7.03;1.98;;;;;;;;;;4986309;28;100369;-81
2023/04/03 05:09:29;;;;;;;5.95;2.25;;;;;;;;;;4979262;28;100428;-81
2023/04/03 05:11:56;;;;;;;2.65;2.00;;;;;;;;;;4989563;28;102752;-81
2023/04/03 05:14:23;;;;;;;3.05;1.80;;;;;;;;;;4975553;28;100147;-84
2023/04/03 05:16:53;;;;;;;3.65;2.10;;;;;;;;;;4986450;28;98678;-84
2023/04/03 05:19:20;;;;;;;7.03;2.22;;;;;;;;;;4988959;28;100297;-84
2023/04/03 05:21:46;;;;;;;6.00;2.58;;;;;;;;;;4980072;28;101277;-84
2023/04/03 05:24:13;;;;;;;9.98;3.05;;;;;;;;;;4983813;28;98631;-84
2023/04/03 05:26:40;;;;;;;6.82;2.30;;;;;;;;;;4988451;28;103078;-84
2023/04/03 05:29:06;;;;;;;12.25;2.72;;;;;;;;;;4987455;28;100534;-83
2023/04/03 05:31:33;;;;;;;3.25;2.03;;;;;;;;;;4980405;28;98570;-83
2023/04/03 05:33:59;;;;;;;8.07;2.58;;;;;;;;;;4988700;28;101656;-83
2023/04/03 05:36:26;;;;;;;4.35;2.20;;;;;;;;;;4989992;28;98534;-83
2023/04/03 05:38:53;;;;;;;5.60;2.65;;;;;;;;;;4989246;28;100608;-83
2023/04/03 05:41:20;;;;;;;7.40;2.10;;;;;;;;;;4989799;28;100611;-81
2023/04/03 05:43:47;;;;;;;10.65;2.60;;;;;;;;;;4982175;28;98544;-81
2023/04/03 05:46:17;;;;;;;7.15;2.45;;;;;;;;;;4987861;28;100528;-81
2023/04/03 05:48:44;;;;;;;15.95;3.13;;;;;;;;;;4988134;28;100902;-80
2023/04/03 05:51:22;;;;;;;7.53;2.53;;;;;;;;;;4990006;28;98541;-80
2023/04/03 05:53:49;;;;;;;4.70;2.35;;;;;;;;;;4982373;28;99816;-81
2023/04/03 05:56:16;;;;;;;6.28;2.20;;;;;;;;;;4979215;28;98740;-80
2023/04/03 05:58:42;;;;;;;3.70;2.15;;;;;;;;;;4969511;28;99332;-80
2023/04/03 06:01:08;;;;;;;7.22;2.40;;;;;;;;;;4980594;28;100924;-80
2023/04/03 06:03:35;;;;;;;7.15;2.33;;;;;;;;;;4987580;28;97794;-80
2023/04/03 06:06:05;;;;;;;3.30;2.30;;;;;;;;;;4982745;28;99852;-81
2023/04/03 06:08:33;;;;;;;4.25;2.13;;;;;;;;;;4981287;28;101049;-82
2023/04/03 06:11:01;;;;;;;11.55;2.42;;;;;;;;;;4987593;28;99582;-82
2023/04/03 06:13:28;;;;;;;10.25;2.65;;;;;;;;;;4983826;28;101015;-82
2023/04/03 06:15:55;;;;;;;6.90;2.30;;;;;;;;;;4987084;28;100073;-82
2023/04/03 06:18:21;;;;;;;5.50;2.30;;;;;;;;;;4986860;28;100790;-83
2023/04/03 06:20:48;;;;;;;10.80;2.35;;;;;;;;;;4986786;28;100478;-84
2023/04/03 06:23:14;;;;;;;8.48;2.50;;;;;;;;;;4991855;28;98528;-79
2023/04/03 06:25:40;;;;;;;6.85;2.72;;;;;;;;;;4983217;28;99200;-78
2023/04/03 06:28:09;;;;;;;6.22;2.28;;;;;;;;;;4978957;28;98958;-79
2023/04/03 06:30:36;;;;;;;6.07;2.30;;;;;;;;;;4989374;28;99049;-79
2023/04/03 06:33:04;;;;;;;9.95;3.30;;;;;;;;;;4992889;28;100589;-80
2023/04/03 06:35:31;;;;;;;7.05;2.55;;;;;;;;;;4994407;28;101529;-80
2023/04/03 06:37:57;;;;;;;5.50;2.33;;;;;;;;;;4983495;28;100937;-80
2023/04/03 06:40:26;;;;;;;10.93;2.40;;;;;;;;;;4989027;28;103339;-85
2023/04/03 06:42:52;;;;;;;10.32;2.40;;;;;;;;;;4984610;28;98613;-85
2023/04/03 06:45:19;;;;;;;9.48;2.70;;;;;;;;;;4996180;28;100455;-84
2023/04/03 06:47:45;;;;;;;9.60;2.90;;;;;;;;;;4991756;28;103314;-83
2023/04/03 06:50:14;;;;;;;5.88;2.15;;;;;;;;;;4983420;28;98607;-84
2023/04/03 06:52:41;;;;;;;8.05;2.20;;;;;;;;;;4985906;28;100553;-85
2023/04/03 06:55:08;;;;;;;6.97;2.55;;;;;;;;;;4981125;28;100663;-86
2023/04/03 06:57:34;;;;;;;6.50;2.30;;;;;;;;;;4975676;28;98475;-84
2023/04/03 07:00:01;;;;;;;5.13;1.75;;;;;;;;;;4981687;28;101460;-83
2023/04/03 07:02:27;;;;;;;7.32;2.40;;;;;;;;;;4982512;28;98674;-83
2023/04/03 07:04:53;;;;;;;9.00;2.35;;;;;;;;;;5008953;28;100513;-84
2023/04/03 07:07:20;;;;;;;4.15;2.00;;;;;;;;;;5005233;28;102056;-84
2023/04/03 07:09:47;;;;;;;5.50;2.20;;;;;;;;;;4972345;28;98492;-85
2023/04/03 07:12:14;;;;;;;11.23;2.53;;;;;;;;;;4973644;28;99699;-84
2023/04/03 07:14:41;;;;;;;7.28;2.40;;;;;;;;;;4988272;28;100519;-84
2023/04/03 07:17:07;;;;;;;10.32;2.47;;;;;;;;;;4985697;28;97879;-84
2023/04/03 07:19:33;;;;;;;8.20;2.33;;;;;;;;;;4993812;28;99535;-83
2023/04/03 07:22:00;;;;;;;6.55;2.35;;;;;;;;;;4986110;28;98697;-83
2023/04/03 07:24:26;;;;;;;7.38;2.42;;;;;;;;;;4977935;28;100169;-84
2023/04/03 07:26:53;;;;;;;5.43;2.13;;;;;;;;;;4982638;28;100638;-84
2023/04/03 07:29:21;;;;;;;7.05;2.70;;;;;;;;;;4984796;28;98762;-84
2023/04/03 07:31:47;;;;;;;6.95;2.42;;;;;;;;;;4980495;28;103199;-83
2023/04/03 07:34:14;;;;;;;6.65;2.67;;;;;;;;;;4978120;28;99568;-83
2023/04/03 07:36:40;;;;;;;5.50;2.38;;;;;;;;;;4991450;28;98658;-83
2023/04/03 07:39:07;;;;;;;7.88;2.15;;;;;;;;;;4979473;28;100347;-82
2023/04/03 07:41:34;;;;;;;6.97;2.47;;;;;;;;;;4992852;28;100045;-82
2023/04/03 07:44:02;;;;;;;10.63;2.80;;;;;;;;;;4973887;28;100152;-85
2023/04/03 07:46:28;;;;;;;9.40;2.92;;;;;;;;;;4976447;28;100942;-83
2023/04/03 07:48:57;;;;;;;4.05;2.22;;;;;;;;;;4991152;28;99341;-85
2023/04/03 07:51:25;;;;;;;2.95;1.80;;;;;;;;;;4989969;28;101018;-84
2023/04/03 07:53:52;;;;;;;5.22;2.03;;;;;;;;;;4978794;28;103308;-85
2023/04/03 07:56:18;;;;;;;5.75;1.90;;;;;;;;;;4971557;28;98593;-81
2023/04/03 07:58:45;;;;;;;6.47;2.47;;;;;;;;;;4971172;28;100331;-84
2023/04/03 08:01:12;;;;;;;6.10;2.03;;;;;;;;;;4976370;28;100642;-85
2023/04/03 08:03:39;;;;;;;8.95;2.67;;;;;;;;;;4975234;28;98515;-85
2023/04/03 08:06:07;;;;;;;12.45;1.80;;;;;;;;;;4970592;28;99761;-89
2023/04/03 08:08:41;;;;;;;13.95;3.10;;;;;;;;;;4970462;28;98756;-88
2023/04/03 08:11:08;;;;;;;3.75;1.95;;;;;;;;;;4984901;28;100630;-85
2023/04/03 08:13:36;;;;;;;7.47;1.80;;;;;;;;;;4990239;28;100254;-86
2023/04/03 08:16:09;;;;;;;11.48;2.30;;;;;;;;;;4989913;28;98569;-88
2023/04/03 08:18:36;;;;;;;9.05;2.10;;;;;;;;;;4985489;28;100508;-88
2023/04/03 08:21:05;;;;;;;7.90;2.30;;;;;;;;;;4983821;28;100679;-89
2023/04/03 08:23:31;;;;;;;3.80;1.45;;;;;;;;;;4993875;28;98671;-85
2023/04/03 08:25:58;;;;;;;8.77;1.80;;;;;;;;;;4990992;28;100642;-87
2023/04/03 08:28:24;;;;;;;8.02;2.10;;;;;;;;;;4981532;28;98628;-83
2023/04/03 08:30:51;;;;;;;4.38;1.73;;;;;;;;;;4972070;28;100670;-83
2023/04/03 08:33:17;;;;;;;6.65;1.83;;;;;;;;;;4970694;28;100529;-86
2023/04/03 08:35:43;;;;;;;3.40;1.50;;;;;;;;;;4971277;28;98697;-83
2023/04/03 08:38:10;;;;;;;6.13;1.60;;;;;;;;;;4986833;28;101271;-83
2023/04/03 08:40:37;;;;;;;3.70;1.38;;;;;;;;;;4982488;28;103747;-84
2023/04/03 08:43:22;;;;;;;6.00;1.70;;;;;;;;;;4971425;28;98598;-81
2023/04/03 08:45:50;;;;;;;7.85;1.60;;;;;;;;;;4977209;28;98649;-80
2023/04/03 08:48:19;;;;;;;4.35;1.52;;;;;;;;;;4988867;28;98779;-81
2023/04/03 08:50:48;;;;;;;2.72;1.30;;;;;;;;;;4987522;28;98860;-79
2023/04/03 08:53:16;;;;;;;3.55;1.02;;;;;;;;;;4981244;28;99517;-79
2023/04/03 08:55:43;;;;;;;4.25;1.13;;;;;;;;;;4970943;28;97925;-79
2023/04/03 08:58:12;;;;;;;2.67;1.00;;;;;;;;;;4995641;28;98633;-79
2023/04/03 09:00:50;;;;;;;3.13;1.15;;;;;;;;;;4968412;28;99706;-80
2023/04/03 09:03:18;;;;;;;2.17;0.80;;;;;;;;;;4968927;28;99392;-81
2023/04/03 09:05:47;;;;;;;3.00;1.23;;;;;;;;;;4975570;28;99933;-81
2023/04/03 09:08:16;;;;;;;1.55;0.70;;;;;;;;;;4991040;28;100444;-81
2023/04/03 09:10:43;;;;;;;2.20;1.02;;;;;;;;;;4990178;28;100580;-81
2023/04/03 09:13:17;;;;;;;1.00;0.98;;;;;;;;;;4986060;28;100544;-82
2023/04/03 09:15:44;;;;;;;1.85;0.80;;;;;;;;;;4986565;28;98512;-83
2023/04/03 09:18:15;;;;;;;3.20;0.98;;;;;;;;;;4979503;28;100278;-81
2023/04/03 09:20:57;;;;;;;0.75;0.57;;;;;;;;;;4980811;28;99767;-79
2023/04/03 09:23:35;;;;;;;5.63;1.40;;;;;;;;;;4989834;28;98505;-80
2023/04/03 09:26:07;;;;;;;1.50;0.77;;;;;;;;;;4990359;28;100928;-80
2023/04/03 09:28:35;;;;;;;1.48;0.70;;;;;;;;;;4986030;28;101392;-82
2023/04/03 09:31:23;;;;;;;1.38;0.70;;;;;;;;;;4992090;28;98882;-81
2023/04/03 09:33:51;;;;;;;7.75;0.60;;;;;;;;;;4977197;28;100570;-84
2023/04/03 09:36:36;;;;;;;3.80;0.85;;;;;;;;;;4969692;28;98574;-82
2023/04/03 09:39:09;;;;;;;1.17;0.60;;;;;;;;;;4975121;28;100493;-83
2023/04/03 09:41:35;;;;;;;2.78;0.90;;;;;;;;;;4988823;28;103350;-82
2023/04/03 09:44:02;;;;;;;0.55;0.55;;;;;;;;;;4989340;28;98623;-83
2023/04/03 09:46:30;;;;;;;1.90;0.50;;;;;;;;;;4993844;28;100182;-83
2023/04/03 09:48:59;;;;;;;1.60;0.60;;;;;;;;;;4973540;28;100037;-83
2023/04/03 09:51:34;;;;;;;3.42;0.70;;;;;;;;;;4991080;28;98506;-84
2023/04/03 09:54:21;;;;;;;1.73;0.60;;;;;;;;;;4996073;28;100439;-83
2023/04/03 09:56:51;;;;;;;10.18;0.50;;;;;;;;;;4989397;28;98733;-84
2023/04/03 09:59:17;;;;;;;5.82;0.70;;;;;;;;;;4991465;28;100525;-86
2023/04/03 10:01:57;;;;;;;1.42;0.65;;;;;;;;;;4991489;28;103068;-84
2023/04/03 10:04:25;;;;;;;2.55;0.93;;;;;;;;;;4993604;28;98510;-85
2023/04/03 10:06:52;;;;;;;3.70;0.93;;;;;;;;;;4991852;28;100193;-85
2023/04/03 10:09:21;;;;;;;1.42;0.50;;;;;;;;;;4989865;28;100917;-85
2023/04/03 10:12:04;;;;;;;3.63;0.82;;;;;;;;;;4990993;28;97785;-83
2023/04/03 10:14:32;;;;;;;1.45;0.70;;;;;;;;;;4991461;28;99902;-83
2023/04/03 10:17:03;;;;;;;3.25;0.60;;;;;;;;;;5004937;28;100726;-86
2023/04/03 10:19:52;;;;;;;0.45;0.45;;;;;;;;;;5001915;28;100222;-84
2023/04/03 10:22:19;;;;;;;1.02;0.52;;;;;;;;;;4985408;28;100586;-85
2023/04/03 10:25:00;;;;;;;0.70;0.32;;;;;;;;;;4992018;28;98529;-85
2023/04/03 10:27:32;;;;;;;1.10;0.40;;;;;;;;;;4991875;28;100516;-84
2023/04/03 10:30:19;;;;;;;0.95;0.60;;;;;;;;;;4990915;28;101415;-85
2023/04/03 10:32:53;;;;;;;0.65;0.50;;;;;;;;;;4983718;28;98514;-84
2023/04/03 10:35:25;;;;;;;1.95;0.55;;;;;;;;;;4975337;28;99827;-83
2023/04/03 10:38:03;;;;;;;0.50;0.50;;;;;;;;;;4995412;28;99216;-88
2023/04/03 10:40:32;;;;;;;1.05;0.50;;;;;;;;;;4979516;28;100260;-84
2023/04/03 10:43:09;;;;;;;1.42;0.57;;;;;;;;;;4986861;28;100571;-82
2023/04/03 10:45:59;;;;;;;1.23;0.40;;;;;;;;;;4990783;28;99440;-85
2023/04/03 10:48:31;;;;;;;0.77;0.40;;;;;;;;;;4952741;28;101583;-84
2023/04/03 10:51:04;;;;;;;9.45;0.85;;;;;;;;;;4956042;28;100666;-84
2023/04/03 10:53:38;;;;;;;8.25;0.98;;;;;;;;;;4969983;28;98635;-84
2023/04/03 10:56:17;;;;;;;1.48;0.70;;;;;;;;;;4969741;28;100298;-83
2023/04/03 10:58:49;;;;;;;2.83;0.70;;;;;;;;;;4950298;28;100565;-84
2023/04/03 11:01:20;;;;;;;4.25;0.65;;;;;;;;;;4971527;28;100103;-82
2023/04/03 11:03:49;;;;;;;5.38;1.05;;;;;;;;;;4968346;28;99805;-82
2023/04/03 11:06:17;;;;;;;2.08;1.00;;;;;;;;;;4961270;28;98726;-82
2023/04/03 11:08:51;;;;;;;2.22;0.68;;;;;;;;;;4957824;28;102491;-82
2023/04/03 11:11:21;;;;;;;0.73;0.70;;;;;;;;;;4949880;28;101172;-82
2023/04/03 11:14:01;;;;;;;15.77;1.10;;;;;;;;;;4950680;28;98614;-82
2023/04/03 11:16:28;;;;;;;1.97;0.90;;;;;;;;;;4951772;28;100442;-82
2023/04/03 11:19:02;;;;;;;0.90;0.68;;;;;;;;;;4934704;28;103283;-82
2023/04/03 11:21:29;;;;;;;1.58;0.75;;;;;;;;;;4959067;28;102720;-82
2023/04/03 11:23:56;;;;;;;2.97;0.75;;;;;;;;;;4973211;28;101127;-82
2023/04/03 11:26:24;;;;;;;2.35;0.70;;;;;;;;;;4986671;28;98635;-82
2023/04/03 11:28:58;;;;;;;6.93;0.80;;;;;;;;;;4992207;28;100261;-86
2023/04/03 11:31:43;;;;;;;3.90;0.60;;;;;;;;;;4989775;28;100544;-85
2023/04/03 11:34:19;;;;;;;2.70;0.90;;;;;;;;;;4990786;28;98823;-84
2023/04/03 11:36:48;;;;;;;3.13;0.63;;;;;;;;;;4986046;28;100652;-84
2023/04/03 11:39:37;;;;;;;1.17;0.50;;;;;;;;;;4972443;28;100576;-84
2023/04/03 11:42:13;;;;;;;0.93;0.70;;;;;;;;;;4991250;28;98562;-84
2023/04/03 11:44:39;;;;;;;1.48;0.70;;;;;;;;;;4990760;28;100429;-84
2023/04/03 11:47:07;;;;;;;1.13;0.63;;;;;;;;;;4984252;28;100858;-85
2023/04/03 11:49:53;;;;;;;3.45;0.85;;;;;;;;;;4974324;28;100347;-86
2023/04/03 11:52:38;;;;;;;3.13;0.68;;;;;;;;;;4991907;28;100509;-89
2023/04/03 11:55:21;;;;;;;2.65;0.70;;;;;;;;;;4995074;28;97843;-85
2023/04/03 11:57:57;;;;;;;1.48;1.05;;;;;;;;;;4977562;28;99468;-84
2023/04/03 12:00:42;;;;;;;1.45;0.60;;;;;;;;;;4990032;28;100712;-84
2023/04/03 12:03:27;;;;;;;1.45;0.90;;;;;;;;;;4993443;28;99241;-85
2023/04/03 12:05:53;;;;;;;2.45;0.77;;;;;;;;;;4989459;28;100977;-84
2023/04/03 12:08:26;;;;;;;4.68;1.00;;;;;;;;;;4989585;28;100861;-85
2023/04/03 12:11:26;;;;;;;2.08;0.70;;;;;;;;;;4979025;28;98628;-86
2023/04/03 12:13:55;;;;;;;1.95;0.80;;;;;;;;;;4969682;28;100754;-86
2023/04/03 12:16:33;;;;;;;1.90;0.80;;;;;;;;;;4979868;28;99296;-88
2023/04/03 12:19:04;;;;;;;5.32;1.02;;;;;;;;;;4982839;28;100360;-83
2023/04/03 12:21:31;;;;;;;2.13;0.82;;;;;;;;;;4991438;28;100213;-82
2023/04/03 12:23:57;;;;;;;3.00;0.80;;;;;;;;;;4991430;28;98599;-82
2023/04/03 12:26:26;;;;;;;1.40;1.00;;;;;;;;;;4989665;28;100547;-83
2023/04/03 12:29:13;;;;;;;0.67;0.67;;;;;;;;;;4974912;28;101324;-86
2023/04/03 12:31:58;;;;;;;2.22;1.08;;;;;;;;;;4971834;28;98559;-86
2023/04/03 12:34:31;;;;;;;2.35;1.20;;;;;;;;;;4990742;28;98622;-88
2023/04/03 12:37:01;;;;;;;1.30;0.90;;;;;;;;;;4976806;28;98570;-87
2023/04/03 12:39:28;;;;;;;;;;;;;;;;;;4992168;28;101855;-87
2023/04/03 12:42:02;;;;;;;4.95;0.90;;;;;;;;;;4993145;28;130786;-87
2023/04/03 12:44:44;;;;;;;1.25;0.80;;;;;;;;;;4993243;28;98489;-85
2023/04/03 12:47:19;;;;;;;3.47;1.20;;;;;;;;;;4991817;28;103010;-86
2023/04/03 12:49:46;;;;;;;2.97;1.20;;;;;;;;;;4985304;28;99402;-85
2023/04/03 12:52:33;;;;;;;3.28;1.15;;;;;;;;;;4984917;28;99089;-86
2023/04/03 12:55:03;;;;;;;9.43;0.95;;;;;;;;;;5002308;28;99236;-88
2023/04/03 12:57:30;;;;;;;1.65;0.82;;;;;;;;;;4990122;28;99063;-85
2023/04/03 12:59:57;;;;;;;1.42;0.80;;;;;;;;;;4984542;28;100327;-85
2023/04/03 13:02:25;;;;;;;2.05;1.00;;;;;;;;;;4994241;28;102363;-86
2023/04/03 13:04:57;;;;;;;1.33;0.68;;;;;;;;;;4994014;28;98556;-86
2023/04/03 13:07:28;;;;;;;4.07;1.00;;;;;;;;;;4996780;28;100556;-85
2023/04/03 13:09:55;;;;;;;2.65;0.90;;;;;;;;;;4983233;28;100488;-85
2023/04/03 13:12:21;;;;;;;1.30;0.73;;;;;;;;;;4993514;28;97767;-85
2023/04/03 13:14:55;;;;;;;3.40;0.98;;;;;;;;;;4991629;28;100018;-84
2023/04/03 13:17:22;;;;;;;1.35;0.80;;;;;;;;;;5006496;28;100507;-86
2023/04/03 13:19:48;;;;;;;1.13;0.80;;;;;;;;;;4987380;28;100346;-85
2023/04/03 13:22:30;;;;;;;2.47;0.90;;;;;;;;;;4989041;28;100816;-86
2023/04/03 13:24:58;;;;;;;2.38;0.90;;;;;;;;;;4991298;28;98474;-87
2023/04/03 13:27:25;;;;;;;5.18;1.30;;;;;;;;;;4995004;28;100177;-79
2023/04/03 13:29:53;;;;;;;5.03;1.40;;;;;;;;;;4985832;28;100687;-78
2023/04/03 13:32:22;;;;;;;5.13;1.25;;;;;;;;;;4981808;28;98653;-77
2023/04/03 13:34:49;;;;;;;9.82;1.13;;;;;;;;;;4980636;28;99430;-77
2023/04/03 13:37:23;;;;;;;3.38;1.10;;;;;;;;;;4982656;28;99365;-78
2023/04/03 13:40:10;;;;;;;4.47;1.30;;;;;;;;;;4994763;28;99269;-78
2023/04/03 13:42:41;;;;;;;1.60;0.80;;;;;;;;;;4977511;28;99575;-83
2023/04/03 13:45:07;;;;;;;;;;;;;;;;;;4976660;28;99219;-79
2023/04/03 13:47:38;;;;;;;2.53;1.00;;;;;;;;;;4998521;28;131030;-78
2023/04/03 13:50:11;;;;;;;4.72;1.23;;;;;;;;;;5019159;28;102105;-77
2023/04/03 13:52:42;;;;;;;2.13;0.85;;;;;;;;;;4984607;28;98567;-78
2023/04/03 13:55:15;;;;;;;0.60;0.60;;;;;;;;;;4996578;28;99685;-87
2023/04/03 13:57:50;;;;;;;2.25;1.10;;;;;;;;;;4995693;28;100334;-88
2023/04/03 14:00:40;;;;;;;1.65;0.90;;;;;;;;;;4992927;28;98700;-87
2023/04/03 14:03:13;;;;;;;1.50;1.00;;;;;;;;;;4977877;28;100188;-79
2023/04/03 14:05:40;;;;;;;1.85;0.90;;;;;;;;;;4968240;28;98724;-79
2023/04/03 14:08:07;;;;;;;1.48;1.02;;;;;;;;;;4993715;28;100192;-87
2023/04/03 14:10:33;;;;;;;4.00;1.10;;;;;;;;;;4993896;28;101700;-88
2023/04/03 14:13:00;;;;;;;5.45;1.20;;;;;;;;;;4994952;28;98844;-88
2023/04/03 14:15:27;;;;;;;3.65;1.30;;;;;;;;;;4975821;28;100614;-88
2023/04/03 14:17:55;;;;;;;7.97;1.48;;;;;;;;;;4992881;28;101013;-85
2023/04/03 14:20:23;;;;;;;2.88;1.00;;;;;;;;;;4957639;28;98644;-83
2023/04/03 14:22:49;;;;;;;5.78;1.55;;;;;;;;;;4993425;28;100362;-82
2023/04/03 14:25:16;;;;;;;4.40;1.30;;;;;;;;;;4995482;28;100625;-79
2023/04/03 14:27:44;;;;;;;1.95;1.02;;;;;;;;;;4993303;28;100287;-79
2023/04/03 14:30:15;;;;;;;3.63;1.30;;;;;;;;;;4974481;28;100452;-79
2023/04/03 14:32:41;;;;;;;3.33;1.08;;;;;;;;;;4974523;28;98691;-78
2023/04/03 14:35:10;;;;;;;4.72;1.20;;;;;;;;;;4974165;28;99789;-78
2023/04/03 14:37:36;;;;;;;2.67;1.17;;;;;;;;;;4957095;28;100270;-90
2023/04/03 14:40:04;;;;;;;2.78;1.10;;;;;;;;;;4988714;28;100348;-89
2023/04/03 14:42:32;;;;;;;4.45;1.50;;;;;;;;;;4990978;28;100460;-90
2023/04/03 14:45:00;;;;;;;2.50;1.60;;;;;;;;;;4992830;28;100633;-89
2023/04/03 14:47:27;;;;;;;2.08;1.20;;;;;;;;;;4989673;28;98590;-91